Winchester Center, Connecticut
Current Conditions -  °F | °C
As of 2:51 PM on Tuesday 21 Oct 2014 (Local Time) from KBDL Reporting Station
Few Clouds Few Clouds  
Wind Chill: 65°   Ceiling: Unl
Heat Index: 65°   Visibility: 10mi
Dew Point: 48°   Wind: 8mph
Humidity: 54%   Direction: 20°NNE
Pressure: 29.86"   Gusts: NA
Location:  41.9°N, 73.14°W
Report Text: KBDL 211851Z 02007KT 10SM FEW045 FEW085 18/09 A2986 RMK AO2 SLP112 T01830089
Loading
Personal Weather Stations






























Interactive Weather Map
Tropical Storm Tracking
New forecast layout! Learn more

10-Day Weather Forecast

Advertisements
Track Severe Weather on mobile